createdAt,value
2023-02-27T00:02:08.143Z,5.28
2023-02-27T00:04:35.840Z,3.97
2023-02-27T00:07:03.527Z,4.28
2023-02-27T00:09:30.963Z,7.25
2023-02-27T00:11:58.478Z,8.60
2023-02-27T00:14:26.137Z,4.22
2023-02-27T00:16:53.613Z,5.90
2023-02-27T00:19:21.983Z,8.38
2023-02-27T00:21:49.384Z,3.13
2023-02-27T00:24:16.921Z,9.55
2023-02-27T00:26:44.569Z,5.68
2023-02-27T00:29:11.944Z,4.22
2023-02-27T00:31:39.541Z,9.52
2023-02-27T00:34:07.059Z,3.33
2023-02-27T00:36:34.428Z,8.25
2023-02-27T00:39:01.997Z,3.90
2023-02-27T00:41:29.427Z,3.47
2023-02-27T00:43:56.796Z,5.95
2023-02-27T00:46:24.237Z,6.43
2023-02-27T00:48:51.832Z,5.80
2023-02-27T00:51:20.390Z,5.70
2023-02-27T00:53:47.934Z,2.70
2023-02-27T00:56:15.526Z,4.50
2023-02-27T00:58:42.998Z,4.97
2023-02-27T01:01:10.493Z,5.68
2023-02-27T01:03:38.029Z,4.20
2023-02-27T01:06:05.767Z,4.72
2023-02-27T01:08:33.307Z,5.63
2023-02-27T01:11:00.865Z,2.97
2023-02-27T01:13:28.300Z,5.78
2023-02-27T01:15:55.714Z,3.63
2023-02-27T01:18:23.256Z,6.75
2023-02-27T01:20:54.893Z,4.03
2023-02-27T01:23:23.363Z,2.15
2023-02-27T01:25:50.871Z,4.38
2023-02-27T01:28:18.315Z,4.63
2023-02-27T01:30:45.818Z,3.78
2023-02-27T01:33:13.351Z,3.17
2023-02-27T01:35:40.974Z,6.50
2023-02-27T01:38:08.564Z,1.63
2023-02-27T01:40:40.561Z,5.95
2023-02-27T01:43:15.178Z,6.45
2023-02-27T01:45:44.464Z,5.90
2023-02-27T01:48:35.478Z,4.10
2023-02-27T01:51:09.228Z,4.40
2023-02-27T01:53:40.156Z,3.85
2023-02-27T01:56:16.182Z,3.65
2023-02-27T01:58:44.639Z,7.50
2023-02-27T02:01:12.476Z,3.97
2023-02-27T02:03:58.461Z,5.97
2023-02-27T02:06:27.644Z,6.25
2023-02-27T02:08:57.939Z,8.77
2023-02-27T02:11:27.447Z,7.50
2023-02-27T02:13:58.595Z,4.60
2023-02-27T02:16:44.101Z,4.50
2023-02-27T02:19:23.160Z,5.90
2023-02-27T02:22:27.190Z,4.35
2023-02-27T02:25:12.501Z,4.70
2023-02-27T02:28:00.722Z,2.97
2023-02-27T02:30:43.033Z,2.22
2023-02-27T02:33:38.017Z,2.92
2023-02-27T02:36:14.055Z,3.70
2023-02-27T02:39:12.186Z,8.30
2023-02-27T02:41:58.260Z,4.93
2023-02-27T02:44:46.860Z,3.92
2023-02-27T02:47:42.298Z,4.43
2023-02-27T02:50:13.731Z,6.30
2023-02-27T02:52:52.949Z,4.00
2023-02-27T02:55:42.214Z,5.88
2023-02-27T02:58:32.802Z,2.55
2023-02-27T03:01:23.064Z,3.55
2023-02-27T03:03:56.410Z,5.70
2023-02-27T03:06:30.918Z,2.92
2023-02-27T03:09:20.988Z,7.90
2023-02-27T03:11:51.683Z,3.30
2023-02-27T03:14:37.675Z,3.72
2023-02-27T03:17:10.591Z,7.55
2023-02-27T03:19:47.139Z,3.85
2023-02-27T03:22:19.760Z,5.65
2023-02-27T03:24:57.465Z,6.10
2023-02-27T03:27:30.419Z,3.92
2023-02-27T03:30:30.238Z,3.95
2023-02-27T03:33:05.102Z,5.90
2023-02-27T03:35:53.681Z,5.80
2023-02-27T03:38:31.897Z,5.47
2023-02-27T03:41:13.300Z,3.20
2023-02-27T03:43:49.432Z,5.45
2023-02-27T03:46:21.554Z,4.95
2023-02-27T03:48:49.244Z,5.82
2023-02-27T03:51:22.840Z,4.13
2023-02-27T03:53:50.785Z,8.52
2023-02-27T03:56:25.096Z,5.82
2023-02-27T03:58:53.648Z,4.15
2023-02-27T04:01:22.016Z,5.43
2023-02-27T04:04:08.394Z,6.60
2023-02-27T04:06:56.794Z,4.07
2023-02-27T04:09:58.194Z,5.65
2023-02-27T04:12:45.891Z,3.88
2023-02-27T04:15:33.228Z,5.30
2023-02-27T04:18:30.369Z,3.75
2023-02-27T04:21:07.692Z,6.43
2023-02-27T04:23:51.646Z,7.47
2023-02-27T04:26:30.421Z,5.28
2023-02-27T04:29:10.651Z,5.80
2023-02-27T04:31:44.377Z,4.82
2023-02-27T04:34:44.015Z,4.05
2023-02-27T04:37:47.925Z,9.10
2023-02-27T04:42:55.074Z,4.55
2023-02-27T04:45:26.012Z,10.57
2023-02-27T04:47:59.199Z,5.88
2023-02-27T04:53:14.648Z,7.72
2023-02-27T04:55:46.955Z,8.23
2023-02-27T04:58:29.682Z,5.00
2023-02-27T05:01:03.977Z,4.32
2023-02-27T05:03:35.564Z,5.10
2023-02-27T05:06:03.400Z,4.53
2023-02-27T05:08:36.796Z,4.95
2023-02-27T05:11:20.924Z,5.82
2023-02-27T05:14:04.320Z,5.40
2023-02-27T05:19:03.636Z,9.13
2023-02-27T05:21:44.283Z,4.10
2023-02-27T05:24:26.764Z,5.38
2023-02-27T05:27:03.428Z,7.05
2023-02-27T05:29:59.705Z,6.05
2023-02-27T05:32:45.595Z,5.65
2023-02-27T05:35:37.452Z,5.97
2023-02-27T05:38:17.828Z,8.70
2023-02-27T05:40:51.437Z,3.67
2023-02-27T05:43:23.463Z,8.25
2023-02-27T05:45:56.318Z,6.47
2023-02-27T05:48:37.041Z,5.32
2023-02-27T05:51:08.101Z,5.03
2023-02-27T05:53:41.306Z,5.70
2023-02-27T05:58:42.422Z,5.65
2023-02-27T06:01:11.236Z,5.97
2023-02-27T06:03:40.404Z,3.15
2023-02-27T06:06:13.886Z,4.75
2023-02-27T06:08:41.396Z,3.28
2023-02-27T06:11:09.002Z,11.23
2023-02-27T06:13:36.534Z,13.05
2023-02-27T06:16:04.197Z,5.18
2023-02-27T06:18:31.780Z,8.00
2023-02-27T06:20:59.496Z,6.47
2023-02-27T06:23:27.102Z,8.00
2023-02-27T06:25:54.650Z,4.53
2023-02-27T06:28:22.208Z,7.30
2023-02-27T06:30:54.805Z,6.25
2023-02-27T06:33:22.364Z,4.95
2023-02-27T06:35:50.181Z,10.93
2023-02-27T06:38:18.036Z,5.88
2023-02-27T06:40:45.812Z,5.70
2023-02-27T06:43:14.935Z,7.32
2023-02-27T06:45:42.379Z,5.93
2023-02-27T06:48:12.693Z,11.80
2023-02-27T06:50:40.300Z,9.30
2023-02-27T06:53:07.850Z,5.55
2023-02-27T06:55:35.500Z,6.95
2023-02-27T06:58:02.966Z,7.15
2023-02-27T07:00:30.687Z,6.50
2023-02-27T07:02:58.213Z,6.57
2023-02-27T07:05:26.075Z,6.75
2023-02-27T07:07:53.678Z,6.47
2023-02-27T07:10:21.274Z,7.32
2023-02-27T07:12:49.063Z,10.65
2023-02-27T07:15:16.672Z,7.18
2023-02-27T07:17:44.137Z,8.57
2023-02-27T07:20:12.387Z,6.70
2023-02-27T07:22:40.914Z,9.02
2023-02-27T07:25:09.494Z,6.32
2023-02-27T07:27:37.002Z,6.70
2023-02-27T07:30:05.335Z,5.25
2023-02-27T07:32:33.003Z,7.05
2023-02-27T07:35:00.444Z,7.25
2023-02-27T07:37:28.323Z,7.35
2023-02-27T07:39:56.298Z,6.93
2023-02-27T07:42:23.943Z,11.48
2023-02-27T07:44:51.494Z,5.82
2023-02-27T07:47:19.178Z,9.52
2023-02-27T07:49:46.621Z,5.88
2023-02-27T07:52:14.104Z,4.72
2023-02-27T07:54:41.604Z,7.38
2023-02-27T07:57:09.180Z,7.47
2023-02-27T07:59:36.730Z,7.60
2023-02-27T08:02:04.276Z,6.97
2023-02-27T08:04:31.893Z,7.80
2023-02-27T08:06:59.573Z,5.57
2023-02-27T08:09:27.214Z,8.65
2023-02-27T08:11:54.816Z,9.63
2023-02-27T08:14:22.409Z,10.05
2023-02-27T08:16:49.930Z,8.05
2023-02-27T08:19:17.393Z,6.75
2023-02-27T08:21:44.844Z,8.55
2023-02-27T08:24:12.385Z,6.20
2023-02-27T08:26:40.014Z,7.13
2023-02-27T08:29:07.930Z,6.35
2023-02-27T08:31:35.643Z,13.07
2023-02-27T08:34:10.282Z,6.20
2023-02-27T08:36:39.217Z,7.72
2023-02-27T08:39:07.849Z,8.52
2023-02-27T08:41:35.929Z,6.72
2023-02-27T08:44:03.726Z,9.43
2023-02-27T08:46:31.412Z,7.63
2023-02-27T08:48:58.945Z,8.80
2023-02-27T08:51:27.026Z,8.18
2023-02-27T08:53:58.979Z,5.20
2023-02-27T08:56:28.208Z,6.35
2023-02-27T08:58:56.375Z,6.20
2023-02-27T09:01:27.386Z,5.63
2023-02-27T09:03:55.379Z,5.18
2023-02-27T09:06:25.175Z,6.97
2023-02-27T09:08:53.831Z,7.45
2023-02-27T09:11:21.601Z,7.03
2023-02-27T09:13:49.055Z,7.22
2023-02-27T09:16:16.784Z,4.25
2023-02-27T09:18:44.655Z,8.40
2023-02-27T09:21:12.444Z,5.60
2023-02-27T09:23:40.550Z,3.28
2023-02-27T09:26:09.636Z,4.50
2023-02-27T09:28:40.132Z,7.90
2023-02-27T09:31:08.303Z,5.38
2023-02-27T09:33:37.503Z,5.35
2023-02-27T09:36:06.627Z,6.05
2023-02-27T09:38:35.105Z,5.47
2023-02-27T09:41:04.499Z,5.43
2023-02-27T09:43:46.080Z,5.30
2023-02-27T09:46:21.487Z,2.95
2023-02-27T09:48:59.109Z,4.28
2023-02-27T09:51:28.283Z,3.15
2023-02-27T09:54:00.378Z,3.15
2023-02-27T09:56:32.549Z,5.90
2023-02-27T09:59:13.925Z,4.43
2023-02-27T10:01:48.566Z,8.00
2023-02-27T10:04:30.869Z,4.13
2023-02-27T10:06:58.428Z,3.03
2023-02-27T10:09:55.117Z,6.60
2023-02-27T10:12:38.087Z,3.53
2023-02-27T10:15:21.033Z,8.00
2023-02-27T10:18:20.200Z,3.47
2023-02-27T10:21:16.080Z,2.58
2023-02-27T10:23:51.239Z,3.63
2023-02-27T10:26:22.027Z,4.18
2023-02-27T10:28:49.544Z,4.70
2023-02-27T10:31:22.696Z,2.83
2023-02-27T10:33:51.140Z,2.67
2023-02-27T10:36:32.451Z,3.13
2023-02-27T10:39:10.856Z,2.13
2023-02-27T10:41:40.026Z,6.82
2023-02-27T10:44:07.655Z,5.60
2023-02-27T10:46:39.974Z,5.15
2023-02-27T10:49:19.469Z,4.93
2023-02-27T10:52:04.191Z,7.75
2023-02-27T10:54:31.917Z,5.43
2023-02-27T10:57:02.840Z,4.68
2023-02-27T10:59:39.008Z,4.15
2023-02-27T11:02:21.429Z,2.38
2023-02-27T11:04:57.361Z,3.50
2023-02-27T11:07:51.158Z,2.97
2023-02-27T11:10:28.524Z,3.58
2023-02-27T11:13:21.690Z,10.18
2023-02-27T11:16:15.773Z,5.63
2023-02-27T11:21:16.559Z,4.43
2023-02-27T11:24:00.968Z,2.35
2023-02-27T11:26:36.401Z,3.67
2023-02-27T11:29:20.495Z,2.92
2023-02-27T11:31:48.028Z,4.60
2023-02-27T11:34:26.618Z,3.30
2023-02-27T11:37:14.289Z,6.70
2023-02-27T11:39:53.137Z,2.20
2023-02-27T11:42:25.724Z,3.65
2023-02-27T11:45:01.390Z,3.77
2023-02-27T11:47:37.819Z,1.85
2023-02-27T11:50:52.215Z,4.22
2023-02-27T11:53:40.151Z,4.70
2023-02-27T11:56:14.900Z,4.32
2023-02-27T11:58:56.497Z,2.78
2023-02-27T12:01:31.777Z,2.92
2023-02-27T12:04:02.141Z,2.83
2023-02-27T12:06:42.181Z,3.35
2023-02-27T12:09:20.850Z,2.13
2023-02-27T12:11:50.452Z,2.42
2023-02-27T12:14:25.225Z,4.53
2023-02-27T12:17:06.931Z,3.90
2023-02-27T12:19:54.350Z,3.45
2023-02-27T12:22:28.881Z,2.38
2023-02-27T12:25:13.768Z,1.98
2023-02-27T12:27:44.246Z,2.08
2023-02-27T12:30:29.775Z,3.15
2023-02-27T12:33:22.220Z,2.47
2023-02-27T12:36:00.054Z,4.88
2023-02-27T12:38:27.749Z,5.30
2023-02-27T12:41:04.571Z,2.10
2023-02-27T12:44:07.046Z,3.22
2023-02-27T12:46:43.105Z,2.60
2023-02-27T12:49:33.043Z,1.95
2023-02-27T12:52:25.534Z,1.67
2023-02-27T12:55:04.625Z,6.60
2023-02-27T12:57:58.114Z,1.73
2023-02-27T13:00:51.987Z,1.90
2023-02-27T13:03:19.421Z,2.08
2023-02-27T13:06:24.823Z,2.20
2023-02-27T13:09:34.117Z,2.00
2023-02-27T13:12:11.583Z,2.03
2023-02-27T13:14:50.103Z,1.92
2023-02-27T13:17:21.005Z,3.47
2023-02-27T13:20:36.984Z,1.33
2023-02-27T13:23:18.525Z,4.50
2023-02-27T13:25:51.111Z,2.58
2023-02-27T13:28:23.339Z,3.40
2023-02-27T13:31:04.273Z,1.33
2023-02-27T13:33:46.812Z,1.17
2023-02-27T13:36:45.470Z,1.52
2023-02-27T13:39:50.295Z,1.70
2023-02-27T13:42:26.847Z,2.10
2023-02-27T13:44:56.686Z,1.42
2023-02-27T13:47:39.042Z,2.17
2023-02-27T13:50:18.406Z,2.10
2023-02-27T13:52:47.029Z,7.43
2023-02-27T13:55:35.489Z,4.50
2023-02-27T13:58:05.100Z,3.05
2023-02-27T14:00:35.723Z,1.77
2023-02-27T14:03:22.124Z,3.70
2023-02-27T14:05:52.964Z,2.47
2023-02-27T14:08:22.830Z,2.22
2023-02-27T14:11:11.564Z,4.55
2023-02-27T14:13:51.019Z,3.53
2023-02-27T14:16:40.266Z,5.93
2023-02-27T14:19:17.326Z,2.60
2023-02-27T14:21:55.943Z,2.47
2023-02-27T14:24:44.841Z,3.05
2023-02-27T14:27:26.308Z,1.92
2023-02-27T14:29:57.692Z,5.20
2023-02-27T14:32:31.233Z,2.60
2023-02-27T14:37:27.632Z,2.88
2023-02-27T14:39:57.164Z,2.55
2023-02-27T14:42:53.138Z,4.25
2023-02-27T14:45:24.565Z,3.60
2023-02-27T14:47:53.355Z,2.17
2023-02-27T14:50:34.244Z,4.40
2023-02-27T14:53:02.409Z,2.88
2023-02-27T14:55:35.542Z,2.63
2023-02-27T14:58:19.719Z,2.20
2023-02-27T15:00:58.357Z,4.00
2023-02-27T15:03:47.769Z,1.80
2023-02-27T15:06:37.325Z,3.47
2023-02-27T15:09:06.140Z,4.40
2023-02-27T15:11:34.206Z,3.40
2023-02-27T15:14:06.639Z,5.43
2023-02-27T15:16:37.627Z,4.95
2023-02-27T15:19:12.883Z,1.67
2023-02-27T15:21:43.876Z,2.92
2023-02-27T15:24:22.599Z,4.03
2023-02-27T15:26:56.318Z,2.47
2023-02-27T15:29:29.865Z,4.03
2023-02-27T15:31:57.422Z,3.25
2023-02-27T15:34:25.006Z,1.95
2023-02-27T15:36:55.282Z,2.53
2023-02-27T15:39:24.695Z,4.55
2023-02-27T15:42:04.598Z,2.90
2023-02-27T15:44:44.533Z,3.03
2023-02-27T15:47:19.989Z,3.92
2023-02-27T15:49:50.022Z,2.42
2023-02-27T15:52:22.659Z,5.90
2023-02-27T15:54:59.794Z,3.67
2023-02-27T15:57:27.595Z,3.10
2023-02-27T15:59:56.162Z,5.90
2023-02-27T16:02:39.700Z,5.20
2023-02-27T16:05:19.223Z,3.83
2023-02-27T16:07:48.111Z,3.05
2023-02-27T16:10:28.088Z,5.45
2023-02-27T16:12:56.251Z,2.75
2023-02-27T16:15:34.819Z,3.92
2023-02-27T16:18:08.686Z,3.03
2023-02-27T16:20:44.735Z,3.83
2023-02-27T16:23:32.064Z,2.75
2023-02-27T16:26:31.280Z,2.03
2023-02-27T16:29:00.742Z,4.15
2023-02-27T16:31:34.630Z,3.22
2023-02-27T16:34:26.137Z,4.13
2023-02-27T16:37:01.649Z,1.95
2023-02-27T16:39:29.407Z,3.40
2023-02-27T16:41:58.952Z,4.80
2023-02-27T16:44:26.889Z,3.45
2023-02-27T16:46:56.490Z,5.38
2023-02-27T16:49:30.893Z,5.13
2023-02-27T16:52:01.353Z,3.63
2023-02-27T16:54:28.811Z,3.15
2023-02-27T16:56:56.485Z,3.25
2023-02-27T16:59:29.503Z,3.60
2023-02-27T17:01:58.573Z,3.55
2023-02-27T17:04:27.302Z,4.20
2023-02-27T17:06:57.077Z,4.40
2023-02-27T17:09:27.408Z,2.17
2023-02-27T17:11:56.660Z,3.15
2023-02-27T17:14:24.836Z,3.00
2023-02-27T17:16:52.331Z,3.28
2023-02-27T17:19:21.551Z,4.50
2023-02-27T17:21:50.676Z,4.80
2023-02-27T17:24:18.264Z,3.00
2023-02-27T17:26:45.736Z,4.72
2023-02-27T17:29:15.134Z,2.53
2023-02-27T17:31:43.229Z,7.03
2023-02-27T17:34:11.148Z,3.28
2023-02-27T17:36:38.824Z,4.07
2023-02-27T17:39:06.464Z,3.72
2023-02-27T17:41:34.218Z,4.88
2023-02-27T17:44:01.975Z,3.97
2023-02-27T17:46:31.487Z,4.55
2023-02-27T17:49:02.101Z,8.15
2023-02-27T17:51:30.601Z,3.72
2023-02-27T17:54:01.323Z,3.10
2023-02-27T17:56:29.124Z,3.28
2023-02-27T17:58:57.736Z,3.05
2023-02-27T18:01:26.337Z,4.93
2023-02-27T18:03:54.946Z,4.72
2023-02-27T18:06:23.577Z,3.58
2023-02-27T18:08:52.015Z,3.90
2023-02-27T18:11:21.657Z,4.97
2023-02-27T18:13:50.628Z,5.90
2023-02-27T18:16:18.569Z,4.97
2023-02-27T18:18:46.151Z,9.82
2023-02-27T18:21:23.188Z,4.45
2023-02-27T18:23:51.864Z,6.13
2023-02-27T18:26:30.505Z,4.32
2023-02-27T18:29:00.771Z,5.43
2023-02-27T18:31:31.316Z,7.18
2023-02-27T18:33:59.775Z,6.32
2023-02-27T18:36:28.683Z,6.20
2023-02-27T18:38:56.758Z,5.18
2023-02-27T18:41:24.381Z,12.00
2023-02-27T18:43:52.710Z,9.20
2023-02-27T18:46:20.540Z,3.05
2023-02-27T18:48:48.092Z,4.03
2023-02-27T18:51:16.438Z,4.05
2023-02-27T18:53:46.352Z,6.07
2023-02-27T18:56:16.052Z,5.03
2023-02-27T18:58:43.900Z,5.38
2023-02-27T19:01:28.007Z,7.38
2023-02-27T19:04:00.292Z,5.05
2023-02-27T19:06:28.644Z,8.63
2023-02-27T19:08:56.405Z,7.45
2023-02-27T19:11:33.194Z,7.57
2023-02-27T19:14:03.160Z,4.70
2023-02-27T19:16:31.477Z,6.63
2023-02-27T19:19:01.102Z,9.52
2023-02-27T19:21:29.264Z,6.80
2023-02-27T19:23:57.477Z,6.20
2023-02-27T19:26:25.200Z,5.93
2023-02-27T19:28:54.292Z,7.50
2023-02-27T19:31:23.925Z,5.22
2023-02-27T19:33:51.685Z,5.57
2023-02-27T19:36:21.072Z,5.53
2023-02-27T19:38:49.401Z,5.15
2023-02-27T19:41:17.894Z,6.05
2023-02-27T19:43:46.499Z,6.65
2023-02-27T19:46:17.335Z,7.25
2023-02-27T19:48:45.569Z,7.60
2023-02-27T19:51:14.497Z,6.03
2023-02-27T19:53:45.463Z,6.00
2023-02-27T19:56:15.896Z,6.85
2023-02-27T19:58:44.160Z,7.30
2023-02-27T20:01:12.509Z,8.13
2023-02-27T20:03:43.781Z,7.13
2023-02-27T20:06:20.197Z,7.60
2023-02-27T20:08:47.937Z,6.93
2023-02-27T20:11:17.477Z,7.95
2023-02-27T20:13:45.606Z,5.60
2023-02-27T20:16:15.896Z,7.80
2023-02-27T20:18:44.269Z,6.85
2023-02-27T20:21:21.119Z,6.85
2023-02-27T20:23:50.843Z,6.20
2023-02-27T20:26:27.244Z,7.43
2023-02-27T20:28:58.451Z,8.85
2023-02-27T20:31:28.808Z,9.25
2023-02-27T20:33:58.028Z,6.70
2023-02-27T20:36:25.437Z,8.13
2023-02-27T20:38:52.984Z,8.23
2023-02-27T20:41:23.093Z,9.25
2023-02-27T20:43:50.536Z,8.73
2023-02-27T20:46:23.590Z,9.18
2023-02-27T20:48:51.653Z,7.85
2023-02-27T20:51:22.250Z,8.43
2023-02-27T20:53:53.190Z,7.78
2023-02-27T20:56:23.302Z,10.57
2023-02-27T20:58:51.066Z,8.15
2023-02-27T21:01:19.422Z,7.53
2023-02-27T21:03:50.449Z,9.27
2023-02-27T21:06:18.554Z,9.43
2023-02-27T21:08:49.711Z,8.57
2023-02-27T21:11:21.033Z,10.43
2023-02-27T21:13:48.512Z,10.50
2023-02-27T21:16:18.120Z,11.45
2023-02-27T21:18:45.688Z,7.45
2023-02-27T21:21:16.422Z,10.23
2023-02-27T21:23:44.863Z,8.95
2023-02-27T21:26:19.859Z,10.52
2023-02-27T21:28:52.243Z,11.38
2023-02-27T21:31:21.338Z,20.20
2023-02-27T21:33:50.314Z,13.70
2023-02-27T21:36:17.990Z,11.35
2023-02-27T21:38:46.062Z,15.50
2023-02-27T21:41:13.765Z,17.88
2023-02-27T21:43:41.424Z,11.25
2023-02-27T21:46:11.806Z,10.15
2023-02-27T21:48:39.976Z,12.98
2023-02-27T21:51:08.013Z,8.70
2023-02-27T21:53:37.019Z,11.00
2023-02-27T21:56:06.318Z,9.10
2023-02-27T21:58:34.720Z,7.70
2023-02-27T22:01:02.516Z,12.45
2023-02-27T22:03:34.425Z,11.35
2023-02-27T22:06:02.376Z,9.80
2023-02-27T22:08:29.802Z,11.00
2023-02-27T22:10:58.530Z,11.63
2023-02-27T22:13:26.348Z,10.55
2023-02-27T22:15:54.705Z,11.18
2023-02-27T22:18:22.214Z,10.27
2023-02-27T22:20:49.795Z,10.18
2023-02-27T22:23:17.476Z,11.13
2023-02-27T22:25:45.025Z,10.07
2023-02-27T22:28:12.426Z,11.93
2023-02-27T22:30:39.881Z,13.40
2023-02-27T22:33:07.875Z,12.13
2023-02-27T22:35:36.768Z,11.02
2023-02-27T22:38:04.337Z,12.68
2023-02-27T22:40:33.935Z,15.48
2023-02-27T22:43:01.306Z,17.25
2023-02-27T22:45:28.764Z,9.80
2023-02-27T22:47:56.606Z,11.77
2023-02-27T22:50:24.305Z,11.98
2023-02-27T22:52:51.776Z,11.88
2023-02-27T22:55:19.218Z,9.82
2023-02-27T22:57:50.002Z,11.43
2023-02-27T23:00:18.647Z,18.52
2023-02-27T23:02:46.131Z,11.10
2023-02-27T23:05:13.777Z,11.15
2023-02-27T23:07:42.293Z,13.13
2023-02-27T23:10:12.241Z,11.98
2023-02-27T23:12:39.633Z,8.63
2023-02-27T23:15:08.276Z,14.32
2023-02-27T23:17:39.570Z,9.48
2023-02-27T23:20:11.764Z,10.93
2023-02-27T23:22:39.356Z,7.85
2023-02-27T23:25:09.265Z,10.68
2023-02-27T23:27:36.720Z,11.43
2023-02-27T23:30:04.735Z,9.40
2023-02-27T23:32:32.173Z,9.02
2023-02-27T23:35:00.041Z,13.13
2023-02-27T23:37:27.663Z,12.15
2023-02-27T23:39:55.081Z,11.48
2023-02-27T23:42:22.449Z,9.48
2023-02-27T23:45:05.540Z,14.38
2023-02-27T23:47:42.071Z,10.98
2023-02-27T23:50:10.768Z,10.00
2023-02-27T23:52:38.753Z,9.82
2023-02-27T23:55:06.729Z,9.13
2023-02-27T23:57:34.228Z,12.15
